Time;durP1;ratioP1;P1;durP2;ratioP2;P2;SDS_P1;SDS_P2;PMS_P1;PMS_P2;Temp;Humidity;BMP_temperature;BMP_pressure;BME280_temperature;BME280_humidity;BME280_pressure;Samples;Min_cycle;Max_cycle;Signal;HPM_P1;HPM_P2
2021/11/13 00:00:58;;;;;;;23.13;15.47;;;;;;;;;;5049994;28;20460;-64
2021/11/13 00:03:24;;;;;;;21.40;14.43;;;;;;;;;;5032906;28;20505;-66
2021/11/13 00:05:50;;;;;;;22.20;14.77;;;;;;;;;;5034014;28;20402;-67
2021/11/13 00:08:16;;;;;;;20.27;14.73;;;;;;;;;;5052751;28;20945;-66
2021/11/13 00:10:43;;;;;;;21.00;14.10;;;;;;;;;;5051302;28;20414;-66
2021/11/13 00:13:10;;;;;;;18.80;13.60;;;;;;;;;;5035336;28;20854;-64
2021/11/13 00:15:36;;;;;;;19.17;13.90;;;;;;;;;;5032779;28;20410;-66
2021/11/13 00:18:02;;;;;;;20.37;14.07;;;;;;;;;;5033003;28;20402;-67
2021/11/13 00:20:28;;;;;;;17.00;12.80;;;;;;;;;;5033292;28;20554;-65
2021/11/13 00:22:55;;;;;;;19.17;14.03;;;;;;;;;;5044890;28;20464;-67
2021/11/13 00:25:21;;;;;;;20.97;15.27;;;;;;;;;;5051473;28;20476;-65
2021/11/13 00:27:47;;;;;;;21.40;14.83;;;;;;;;;;5052515;28;20541;-66
2021/11/13 00:30:14;;;;;;;17.80;12.87;;;;;;;;;;5052563;28;20395;-66
2021/11/13 00:32:40;;;;;;;18.50;14.20;;;;;;;;;;5051651;28;20437;-66
2021/11/13 00:35:07;;;;;;;19.00;13.77;;;;;;;;;;5034530;28;20410;-66
2021/11/13 00:37:33;;;;;;;21.23;13.37;;;;;;;;;;5032600;28;20403;-65
2021/11/13 00:39:59;;;;;;;17.47;13.03;;;;;;;;;;5032456;28;20395;-66
2021/11/13 00:42:25;;;;;;;19.43;15.00;;;;;;;;;;5038467;28;20439;-66
2021/11/13 00:44:51;;;;;;;20.47;14.60;;;;;;;;;;5056553;28;20394;-64
2021/11/13 00:47:17;;;;;;;18.40;12.97;;;;;;;;;;5056145;28;20446;-65
2021/11/13 00:49:43;;;;;;;17.43;12.20;;;;;;;;;;5055174;28;20493;-66
2021/11/13 00:52:10;;;;;;;21.40;14.20;;;;;;;;;;5055472;28;20483;-65
2021/11/13 00:54:36;;;;;;;20.33;13.47;;;;;;;;;;5055630;28;20420;-65
2021/11/13 00:57:04;;;;;;;19.43;13.93;;;;;;;;;;5056107;28;20451;-65
2021/11/13 00:59:31;;;;;;;21.40;15.47;;;;;;;;;;5055797;28;20922;-65
2021/11/13 01:01:57;;;;;;;20.07;13.63;;;;;;;;;;5055301;28;20417;-65
2021/11/13 01:04:23;;;;;;;23.50;13.67;;;;;;;;;;5055708;28;20420;-65
2021/11/13 01:06:49;;;;;;;19.30;13.80;;;;;;;;;;5054574;28;20906;-65
2021/11/13 01:09:15;;;;;;;19.70;14.23;;;;;;;;;;5056081;28;20777;-65
2021/11/13 01:11:41;;;;;;;23.30;14.07;;;;;;;;;;5038853;28;23879;-66
2021/11/13 01:14:08;;;;;;;19.60;13.80;;;;;;;;;;5039323;28;20792;-65
2021/11/13 01:16:34;;;;;;;20.67;14.43;;;;;;;;;;5055537;28;20493;-65
2021/11/13 01:19:00;;;;;;;22.03;15.20;;;;;;;;;;5055591;28;20402;-66
2021/11/13 01:21:26;;;;;;;20.73;14.37;;;;;;;;;;5054688;28;20973;-66
2021/11/13 01:23:53;;;;;;;17.97;13.47;;;;;;;;;;5055260;28;20456;-65
2021/11/13 01:26:19;;;;;;;22.87;14.90;;;;;;;;;;5055558;28;20394;-65
2021/11/13 01:28:45;;;;;;;18.57;13.60;;;;;;;;;;5055338;28;20491;-65
2021/11/13 01:31:14;;;;;;;17.80;12.13;;;;;;;;;;5054878;28;20410;-65
2021/11/13 01:33:40;;;;;;;15.90;13.03;;;;;;;;;;5055182;28;20394;-66
2021/11/13 01:36:06;;;;;;;20.93;14.10;;;;;;;;;;5055313;28;20398;-66
2021/11/13 01:38:33;;;;;;;19.40;14.00;;;;;;;;;;5055382;28;20406;-66
2021/11/13 01:40:59;;;;;;;26.43;14.13;;;;;;;;;;5053604;28;20499;-66
2021/11/13 01:43:25;;;;;;;19.43;14.13;;;;;;;;;;5036544;28;20434;-65
2021/11/13 01:45:51;;;;;;;20.90;14.30;;;;;;;;;;5041220;28;20411;-65
2021/11/13 01:48:17;;;;;;;17.00;12.50;;;;;;;;;;5035318;28;20458;-65
2021/11/13 01:50:44;;;;;;;21.03;12.90;;;;;;;;;;5035964;28;20407;-65
2021/11/13 01:53:11;;;;;;;16.73;11.93;;;;;;;;;;5033888;28;20945;-65
2021/11/13 01:55:37;;;;;;;17.80;14.10;;;;;;;;;;5046613;28;20501;-65
2021/11/13 01:58:05;;;;;;;18.00;12.63;;;;;;;;;;5054668;28;20506;-66
2021/11/13 02:00:36;;;;;;;15.57;12.53;;;;;;;;;;5054187;28;20531;-65
2021/11/13 02:03:03;;;;;;;17.03;12.30;;;;;;;;;;5054992;28;20777;-65
2021/11/13 02:05:29;;;;;;;24.83;14.60;;;;;;;;;;5054137;28;20790;-66
2021/11/13 02:07:56;;;;;;;18.87;14.97;;;;;;;;;;5054418;28;20477;-66
2021/11/13 02:10:23;;;;;;;21.23;14.07;;;;;;;;;;5046082;28;20415;-66
2021/11/13 02:12:49;;;;;;;18.80;12.70;;;;;;;;;;5043098;28;20438;-66
2021/11/13 02:15:15;;;;;;;22.10;14.10;;;;;;;;;;5037800;28;20414;-66
2021/11/13 02:17:41;;;;;;;19.50;13.70;;;;;;;;;;5054644;28;20502;-66
2021/11/13 02:20:16;;;;;;;16.70;12.70;;;;;;;;;;5054833;28;20765;-66
2021/11/13 02:22:42;;;;;;;21.97;11.67;;;;;;;;;;5054186;28;20839;-66
2021/11/13 02:25:08;;;;;;;19.70;13.07;;;;;;;;;;5053616;28;20410;-66
2021/11/13 02:27:34;;;;;;;17.43;12.07;;;;;;;;;;5053856;28;20919;-65
2021/11/13 02:30:00;;;;;;;16.17;12.37;;;;;;;;;;5054278;28;20763;-65
2021/11/13 02:32:26;;;;;;;15.70;11.50;;;;;;;;;;5054470;28;20941;-65
2021/11/13 02:34:52;;;;;;;16.40;12.87;;;;;;;;;;5052986;28;20959;-66
2021/11/13 02:37:19;;;;;;;17.10;12.37;;;;;;;;;;5054578;28;20433;-66
2021/11/13 02:39:46;;;;;;;17.17;12.90;;;;;;;;;;5054033;28;20406;-66
2021/11/13 02:42:12;;;;;;;17.10;11.90;;;;;;;;;;5053424;28;20437;-65
2021/11/13 02:44:38;;;;;;;14.33;11.90;;;;;;;;;;5046855;28;20502;-65
2021/11/13 02:47:04;;;;;;;12.70;10.47;;;;;;;;;;5033840;28;20443;-65
2021/11/13 02:49:31;;;;;;;14.23;10.77;;;;;;;;;;5034238;28;20403;-66
2021/11/13 02:51:57;;;;;;;11.50;9.97;;;;;;;;;;5036970;28;20529;-65
2021/11/13 02:54:23;;;;;;;12.40;9.83;;;;;;;;;;5046913;28;20453;-66
2021/11/13 02:56:49;;;;;;;17.43;10.63;;;;;;;;;;5033705;28;20391;-65
2021/11/13 02:59:15;;;;;;;18.73;10.40;;;;;;;;;;5033873;28;20493;-65
2021/11/13 03:01:41;;;;;;;14.87;11.23;;;;;;;;;;5033941;28;20460;-65
2021/11/13 03:04:08;;;;;;;21.77;12.73;;;;;;;;;;5044713;28;20926;-65
2021/11/13 03:06:34;;;;;;;12.87;11.10;;;;;;;;;;5033880;28;20411;-65
2021/11/13 03:09:00;;;;;;;25.33;11.90;;;;;;;;;;5037593;28;20805;-66
2021/11/13 03:11:26;;;;;;;12.47;10.57;;;;;;;;;;5053452;28;20466;-65
2021/11/13 03:13:53;;;;;;;14.93;11.97;;;;;;;;;;5041044;28;20417;-65
2021/11/13 03:16:19;;;;;;;19.30;12.60;;;;;;;;;;5033759;28;20789;-65
2021/11/13 03:18:46;;;;;;;14.57;11.53;;;;;;;;;;5033578;28;20461;-65
2021/11/13 03:21:12;;;;;;;20.00;11.10;;;;;;;;;;5033377;28;20918;-66
2021/11/13 03:23:42;;;;;;;15.77;12.47;;;;;;;;;;5042641;28;20504;-66
2021/11/13 03:26:11;;;;;;;20.20;13.03;;;;;;;;;;5053195;28;20402;-65
2021/11/13 03:28:38;;;;;;;15.67;11.47;;;;;;;;;;5052998;28;20492;-65
2021/11/13 03:31:05;;;;;;;24.97;12.90;;;;;;;;;;5053235;28;20467;-64
2021/11/13 03:33:32;;;;;;;21.20;12.37;;;;;;;;;;5044687;28;20524;-64
2021/11/13 03:35:59;;;;;;;18.80;13.10;;;;;;;;;;5053518;28;20924;-64
2021/11/13 03:38:25;;;;;;;15.73;12.57;;;;;;;;;;5053341;28;20410;-65
2021/11/13 03:40:51;;;;;;;19.10;12.00;;;;;;;;;;5053057;28;20414;-65
2021/11/13 03:43:18;;;;;;;15.40;11.37;;;;;;;;;;5047827;28;20519;-66
2021/11/13 03:45:44;;;;;;;15.77;11.37;;;;;;;;;;5052921;28;20421;-66
2021/11/13 03:48:11;;;;;;;14.70;10.70;;;;;;;;;;5051357;28;20615;-64
2021/11/13 03:50:37;;;;;;;14.60;10.70;;;;;;;;;;5052997;28;20402;-66
2021/11/13 03:53:05;;;;;;;15.43;10.30;;;;;;;;;;5045934;28;20426;-66
2021/11/13 03:55:31;;;;;;;13.90;9.93;;;;;;;;;;5034191;28;20455;-65
2021/11/13 03:57:58;;;;;;;13.27;9.87;;;;;;;;;;5032836;28;20547;-66
2021/11/13 04:00:25;;;;;;;11.53;9.40;;;;;;;;;;5032846;28;20465;-65
2021/11/13 04:02:51;;;;;;;14.00;11.10;;;;;;;;;;5033385;28;20468;-66
2021/11/13 04:05:18;;;;;;;13.80;8.90;;;;;;;;;;5035718;28;20446;-66
2021/11/13 04:07:44;;;;;;;28.07;12.17;;;;;;;;;;5032670;28;20463;-67
2021/11/13 04:10:11;;;;;;;15.40;9.87;;;;;;;;;;5032484;28;20450;-64
2021/11/13 04:12:37;;;;;;;23.03;11.93;;;;;;;;;;5033224;28;20427;-65
2021/11/13 04:15:04;;;;;;;12.00;9.77;;;;;;;;;;5046666;28;20802;-66
2021/11/13 04:17:30;;;;;;;14.00;11.00;;;;;;;;;;5056329;28;20818;-66
2021/11/13 04:19:56;;;;;;;14.07;9.83;;;;;;;;;;5056511;28;20493;-67
2021/11/13 04:22:22;;;;;;;14.97;10.97;;;;;;;;;;5055481;28;20449;-66
2021/11/13 04:24:49;;;;;;;19.53;11.80;;;;;;;;;;5056147;28;20969;-65
2021/11/13 04:27:15;;;;;;;17.77;12.60;;;;;;;;;;5025630;22;20490;-64
2021/11/13 04:29:42;;;;;;;17.37;12.37;;;;;;;;;;4935968;29;20436;-64
2021/11/13 04:32:08;;;;;;;13.90;11.53;;;;;;;;;;4935211;29;20506;-64
2021/11/13 04:37:15;;;;;;;17.73;12.17;;;;;;;;;;4995919;28;20888;-64
2021/11/13 04:39:41;;;;;;;15.87;12.00;;;;;;;;;;5056141;28;20378;-64
2021/11/13 04:42:07;;;;;;;18.87;13.77;;;;;;;;;;5036571;28;20461;-66
2021/11/13 04:44:33;;;;;;;18.93;13.90;;;;;;;;;;5035848;28;20407;-64
2021/11/13 04:46:59;;;;;;;19.97;12.70;;;;;;;;;;5044437;28;20498;-64
2021/11/13 04:49:25;;;;;;;19.50;13.43;;;;;;;;;;5055992;28;20398;-64
2021/11/13 04:51:51;;;;;;;22.10;13.57;;;;;;;;;;5056022;28;20402;-64
2021/11/13 04:54:17;;;;;;;18.37;12.40;;;;;;;;;;5051148;28;20422;-64
2021/11/13 04:56:43;;;;;;;20.90;14.00;;;;;;;;;;5036385;28;20496;-65
2021/11/13 04:59:09;;;;;;;21.00;13.63;;;;;;;;;;5035752;28;20407;-65
2021/11/13 05:01:35;;;;;;;18.07;14.07;;;;;;;;;;5036119;28;20493;-66
2021/11/13 05:04:01;;;;;;;18.87;13.23;;;;;;;;;;5035913;28;20411;-65
2021/11/13 05:06:31;;;;;;;20.83;14.33;;;;;;;;;;5042478;28;20413;-65
2021/11/13 05:08:57;;;;;;;20.40;14.33;;;;;;;;;;5030343;28;21033;-65
2021/11/13 05:11:24;;;;;;;17.70;13.03;;;;;;;;;;5015892;28;20412;-65
2021/11/13 05:13:50;;;;;;;19.47;14.57;;;;;;;;;;5015977;28;20913;-65
2021/11/13 05:16:16;;;;;;;21.40;14.00;;;;;;;;;;5031043;28;20415;-65
2021/11/13 05:18:42;;;;;;;19.20;13.97;;;;;;;;;;5036067;28;20418;-65
2021/11/13 05:21:09;;;;;;;18.40;12.73;;;;;;;;;;5034521;28;20923;-65
2021/11/13 05:23:36;;;;;;;19.37;13.13;;;;;;;;;;5035519;28;20847;-65
2021/11/13 05:26:02;;;;;;;15.87;12.87;;;;;;;;;;5034923;28;20931;-65
2021/11/13 05:28:28;;;;;;;19.93;13.20;;;;;;;;;;5035011;28;20852;-65
2021/11/13 05:30:56;;;;;;;34.83;12.93;;;;;;;;;;5025936;28;20491;-65
2021/11/13 05:33:22;;;;;;;19.60;12.70;;;;;;;;;;5035633;28;20967;-66
2021/11/13 05:35:48;;;;;;;27.60;13.53;;;;;;;;;;5032162;28;20480;-65
2021/11/13 05:38:14;;;;;;;31.33;14.50;;;;;;;;;;5014159;28;20766;-65
2021/11/13 05:40:40;;;;;;;32.80;14.80;;;;;;;;;;5032217;28;20425;-64
2021/11/13 05:43:06;;;;;;;21.80;11.93;;;;;;;;;;5034936;28;20415;-65
2021/11/13 05:45:32;;;;;;;20.37;13.90;;;;;;;;;;5035216;28;20439;-65
2021/11/13 05:47:58;;;;;;;21.10;11.77;;;;;;;;;;5033703;28;20821;-66
2021/11/13 05:50:24;;;;;;;20.77;12.90;;;;;;;;;;5034928;28;20402;-65
2021/11/13 05:52:51;;;;;;;17.57;13.13;;;;;;;;;;5034763;28;20415;-64
2021/11/13 05:55:19;;;;;;;17.13;12.03;;;;;;;;;;5034778;28;20498;-64
2021/11/13 05:57:45;;;;;;;20.73;12.73;;;;;;;;;;5034823;28;20986;-65
2021/11/13 06:00:12;;;;;;;37.03;13.57;;;;;;;;;;5034419;28;20461;-65
2021/11/13 06:02:39;;;;;;;23.27;12.97;;;;;;;;;;5034759;28;20403;-65
2021/11/13 06:05:05;;;;;;;23.77;13.30;;;;;;;;;;5034640;28;20468;-65
2021/11/13 06:07:31;;;;;;;17.57;12.60;;;;;;;;;;5025775;28;20512;-65
2021/11/13 06:09:57;;;;;;;27.93;13.83;;;;;;;;;;5014927;28;20411;-65
2021/11/13 06:12:23;;;;;;;16.47;13.20;;;;;;;;;;5031032;28;20414;-64
2021/11/13 06:14:49;;;;;;;20.40;14.73;;;;;;;;;;5034325;28;20395;-65
2021/11/13 06:17:16;;;;;;;21.80;13.07;;;;;;;;;;5034674;28;20426;-65
2021/11/13 06:19:42;;;;;;;41.63;15.47;;;;;;;;;;5034697;28;20414;-65
2021/11/13 06:22:08;;;;;;;18.80;11.87;;;;;;;;;;5034298;28;20418;-66
2021/11/13 06:24:34;;;;;;;18.50;13.37;;;;;;;;;;5034592;28;20402;-65
2021/11/13 06:27:00;;;;;;;19.77;12.87;;;;;;;;;;5034168;28;20450;-64
2021/11/13 06:29:26;;;;;;;19.20;14.47;;;;;;;;;;5021898;28;20427;-65
2021/11/13 06:31:52;;;;;;;19.73;14.00;;;;;;;;;;5020296;28;20461;-66
2021/11/13 06:34:18;;;;;;;18.30;13.37;;;;;;;;;;5034195;28;20407;-66
2021/11/13 06:36:45;;;;;;;19.50;13.67;;;;;;;;;;5023527;28;20428;-66
2021/11/13 06:39:11;;;;;;;21.47;13.57;;;;;;;;;;5013839;28;20442;-66
2021/11/13 06:41:37;;;;;;;20.30;13.87;;;;;;;;;;5015017;28;20444;-66
2021/11/13 06:44:03;;;;;;;17.97;13.50;;;;;;;;;;5033913;28;20422;-66
2021/11/13 06:46:29;;;;;;;21.07;12.40;;;;;;;;;;5033789;28;20409;-66
2021/11/13 06:48:55;;;;;;;17.77;12.80;;;;;;;;;;5034044;28;20452;-66
2021/11/13 06:51:22;;;;;;;15.57;11.47;;;;;;;;;;5034543;28;20490;-64
2021/11/13 06:53:48;;;;;;;25.63;10.80;;;;;;;;;;5033386;28;20502;-64
2021/11/13 06:56:14;;;;;;;15.57;10.03;;;;;;;;;;5033646;28;20453;-65
2021/11/13 06:58:40;;;;;;;13.90;10.20;;;;;;;;;;5033833;28;20414;-65
2021/11/13 07:01:06;;;;;;;14.17;10.93;;;;;;;;;;5018941;28;20428;-67
2021/11/13 07:03:32;;;;;;;18.43;11.87;;;;;;;;;;5023188;28;20446;-66
2021/11/13 07:05:59;;;;;;;30.87;10.23;;;;;;;;;;5019847;28;20427;-64
2021/11/13 07:08:25;;;;;;;9.57;7.63;;;;;;;;;;5032873;28;20466;-65
2021/11/13 07:10:54;;;;;;;11.67;9.27;;;;;;;;;;5032406;28;20506;-66
2021/11/13 07:13:24;;;;;;;13.00;8.83;;;;;;;;;;5032489;28;20427;-65
2021/11/13 07:15:51;;;;;;;11.37;8.77;;;;;;;;;;5032587;28;20415;-65
2021/11/13 07:18:17;;;;;;;13.67;8.73;;;;;;;;;;5033002;28;20464;-67
2021/11/13 07:20:43;;;;;;;10.10;8.40;;;;;;;;;;5033004;28;20832;-65
2021/11/13 07:23:09;;;;;;;15.70;9.60;;;;;;;;;;5029047;28;20946;-66
2021/11/13 07:25:35;;;;;;;11.13;8.80;;;;;;;;;;5033420;28;20505;-63
2021/11/13 07:28:12;;;;;;;9.83;8.83;;;;;;;;;;5032179;28;20458;-64
2021/11/13 07:30:40;;;;;;;10.27;8.37;;;;;;;;;;5013402;28;20376;-64
2021/11/13 07:33:06;;;;;;;12.53;9.67;;;;;;;;;;5031669;28;20414;-64
2021/11/13 07:35:32;;;;;;;11.70;7.97;;;;;;;;;;5032909;28;20407;-64
2021/11/13 07:37:59;;;;;;;11.63;8.80;;;;;;;;;;5032512;28;20438;-64
2021/11/13 07:40:25;;;;;;;8.97;7.13;;;;;;;;;;5032681;28;20470;-68
2021/11/13 07:42:51;;;;;;;9.20;7.57;;;;;;;;;;5032334;28;20919;-67
2021/11/13 07:45:17;;;;;;;7.80;6.73;;;;;;;;;;5031756;28;20411;-68
2021/11/13 07:47:43;;;;;;;6.43;5.73;;;;;;;;;;5018370;28;20462;-68
2021/11/13 07:50:13;;;;;;;8.60;6.33;;;;;;;;;;5031880;28;20915;-68
2021/11/13 07:52:40;;;;;;;6.97;6.03;;;;;;;;;;5032953;28;20407;-68
2021/11/13 07:55:06;;;;;;;8.33;6.43;;;;;;;;;;5033013;28;20391;-68
2021/11/13 07:57:32;;;;;;;10.53;6.33;;;;;;;;;;5033704;28;20849;-68
2021/11/13 08:00:00;;;;;;;7.10;5.93;;;;;;;;;;5029813;28;20416;-67
2021/11/13 08:02:26;;;;;;;8.37;7.57;;;;;;;;;;5048057;28;20419;-68
2021/11/13 08:04:54;;;;;;;7.23;6.20;;;;;;;;;;5040566;28;20446;-68
2021/11/13 08:07:20;;;;;;;8.47;6.80;;;;;;;;;;5038505;28;20458;-68
2021/11/13 08:09:46;;;;;;;7.60;6.30;;;;;;;;;;5032906;28;20405;-68
2021/11/13 08:12:12;;;;;;;7.80;6.60;;;;;;;;;;5031079;28;20493;-68
2021/11/13 08:14:38;;;;;;;6.07;5.40;;;;;;;;;;5032581;28;20891;-68
2021/11/13 08:17:04;;;;;;;7.33;6.50;;;;;;;;;;5032437;28;20891;-68
2021/11/13 08:19:30;;;;;;;6.20;5.60;;;;;;;;;;5032534;28;20749;-68
2021/11/13 08:21:56;;;;;;;9.73;5.20;;;;;;;;;;5032108;28;20419;-68
2021/11/13 08:24:22;;;;;;;4.90;4.50;;;;;;;;;;5032389;28;20402;-68
2021/11/13 08:26:49;;;;;;;6.10;5.50;;;;;;;;;;5032306;28;20435;-68
2021/11/13 08:29:15;;;;;;;7.70;6.10;;;;;;;;;;5032269;28;20446;-68
2021/11/13 08:31:42;;;;;;;5.87;5.27;;;;;;;;;;5030587;28;20485;-68
2021/11/13 08:34:08;;;;;;;6.70;6.00;;;;;;;;;;5032429;28;20768;-68
2021/11/13 08:36:34;;;;;;;5.53;5.03;;;;;;;;;;5032088;28;20763;-69
2021/11/13 08:39:00;;;;;;;6.53;5.60;;;;;;;;;;5029315;28;20961;-68
2021/11/13 08:41:26;;;;;;;6.30;5.63;;;;;;;;;;5032226;28;20430;-68
2021/11/13 08:43:52;;;;;;;7.67;6.47;;;;;;;;;;5032128;28;20450;-68
2021/11/13 08:46:19;;;;;;;6.73;6.03;;;;;;;;;;5032520;28;20560;-69
2021/11/13 08:48:46;;;;;;;8.53;6.43;;;;;;;;;;5032279;28;20953;-68
2021/11/13 08:51:12;;;;;;;7.30;6.60;;;;;;;;;;5030000;28;20422;-68
2021/11/13 08:53:38;;;;;;;7.77;6.87;;;;;;;;;;5032244;28;20457;-68
2021/11/13 08:56:04;;;;;;;7.70;6.40;;;;;;;;;;5032376;28;20444;-68
2021/11/13 08:58:30;;;;;;;8.63;7.10;;;;;;;;;;5032085;28;20431;-68
2021/11/13 09:00:58;;;;;;;13.03;8.17;;;;;;;;;;5032103;28;20468;-68
2021/11/13 09:03:27;;;;;;;8.77;7.23;;;;;;;;;;5035766;28;20506;-68
2021/11/13 09:05:54;;;;;;;11.27;7.20;;;;;;;;;;5035890;28;20810;-68
2021/11/13 09:08:21;;;;;;;10.83;7.20;;;;;;;;;;5035674;28;20453;-68
2021/11/13 09:10:49;;;;;;;8.13;7.17;;;;;;;;;;5035479;28;20923;-68
2021/11/13 09:13:16;;;;;;;9.93;7.50;;;;;;;;;;5035766;28;20403;-68
2021/11/13 09:15:42;;;;;;;7.80;6.93;;;;;;;;;;5035677;28;20945;-68
2021/11/13 09:18:10;;;;;;;7.80;6.93;;;;;;;;;;5035490;28;20426;-68
2021/11/13 09:20:36;;;;;;;9.70;7.50;;;;;;;;;;5033688;28;20422;-68
2021/11/13 09:23:04;;;;;;;9.53;7.43;;;;;;;;;;5034119;28;20798;-68
2021/11/13 09:25:31;;;;;;;9.27;7.77;;;;;;;;;;5035728;28;20398;-69
2021/11/13 09:27:58;;;;;;;10.57;8.20;;;;;;;;;;5033802;28;20493;-68
2021/11/13 09:30:26;;;;;;;10.30;8.10;;;;;;;;;;5035351;28;20403;-68
2021/11/13 09:32:54;;;;;;;14.03;8.23;;;;;;;;;;5034887;28;20946;-68
2021/11/13 09:35:20;;;;;;;9.00;7.40;;;;;;;;;;5035587;28;20398;-68
2021/11/13 09:37:46;;;;;;;9.33;7.60;;;;;;;;;;5034921;28;20465;-68
2021/11/13 09:40:16;;;;;;;9.03;7.80;;;;;;;;;;5034930;28;20410;-68
2021/11/13 09:42:44;;;;;;;12.40;9.00;;;;;;;;;;5034760;28;20480;-68
2021/11/13 09:45:10;;;;;;;12.40;9.40;;;;;;;;;;5035300;28;20445;-69
2021/11/13 09:47:36;;;;;;;11.67;8.73;;;;;;;;;;5034847;28;20481;-68
2021/11/13 09:50:04;;;;;;;8.07;7.27;;;;;;;;;;5035046;28;20472;-69
2021/11/13 09:52:30;;;;;;;10.80;8.50;;;;;;;;;;5035075;28;20415;-68
2021/11/13 09:54:56;;;;;;;9.40;8.30;;;;;;;;;;5034838;28;20406;-68
2021/11/13 09:57:23;;;;;;;10.93;9.20;;;;;;;;;;5033797;28;20435;-68
2021/11/13 09:59:49;;;;;;;10.77;7.70;;;;;;;;;;5034423;28;20926;-68
2021/11/13 10:02:16;;;;;;;13.67;10.17;;;;;;;;;;5034957;28;20422;-68
2021/11/13 10:04:42;;;;;;;11.07;8.67;;;;;;;;;;5034664;28;20419;-68
2021/11/13 10:07:08;;;;;;;11.60;9.20;;;;;;;;;;5034548;28;20441;-68
2021/11/13 10:09:34;;;;;;;9.30;7.70;;;;;;;;;;5034723;28;20796;-68
2021/11/13 10:12:00;;;;;;;11.70;8.70;;;;;;;;;;5034546;28;20421;-68
2021/11/13 10:14:40;;;;;;;17.10;8.10;;;;;;;;;;5032226;28;20407;-68
2021/11/13 10:17:23;;;;;;;11.50;9.13;;;;;;;;;;5034435;28;20430;-68
2021/11/13 10:19:50;;;;;;;13.43;8.80;;;;;;;;;;5032965;28;20407;-68
2021/11/13 10:22:16;;;;;;;13.10;8.80;;;;;;;;;;5032691;28;20414;-69
2021/11/13 10:24:47;;;;;;;10.53;8.97;;;;;;;;;;5034670;28;20414;-69
2021/11/13 10:27:14;;;;;;;11.67;9.47;;;;;;;;;;5032357;22;20486;-66
2021/11/13 10:29:41;;;;;;;10.70;9.20;;;;;;;;;;4940535;28;20412;-66
2021/11/13 10:32:09;;;;;;;13.13;9.10;;;;;;;;;;4934250;29;20395;-67
2021/11/13 10:34:38;;;;;;;10.97;8.00;;;;;;;;;;4934953;29;20399;-66
2021/11/13 10:37:06;;;;;;;12.60;9.53;;;;;;;;;;4951946;28;20558;-66
2021/11/13 10:39:34;;;;;;;13.33;9.53;;;;;;;;;;4953204;29;20391;-66
2021/11/13 10:42:07;;;;;;;13.03;9.03;;;;;;;;;;4953167;29;20409;-66
2021/11/13 10:44:38;;;;;;;10.67;9.30;;;;;;;;;;4951967;29;20406;-66
2021/11/13 10:47:10;;;;;;;13.37;10.47;;;;;;;;;;4936412;29;20428;-66
2021/11/13 10:49:36;;;;;;;13.23;10.40;;;;;;;;;;4933983;29;20411;-66
2021/11/13 10:52:04;;;;;;;12.93;10.60;;;;;;;;;;4934505;29;20787;-66
2021/11/13 10:54:30;;;;;;;13.20;10.47;;;;;;;;;;4933808;29;20408;-66
2021/11/13 10:56:58;;;;;;;14.53;10.23;;;;;;;;;;4934264;29;20520;-66
2021/11/13 10:59:28;;;;;;;14.10;11.10;;;;;;;;;;4933899;29;20810;-66
2021/11/13 11:01:57;;;;;;;20.07;11.23;;;;;;;;;;4941126;29;20468;-65
2021/11/13 11:04:25;;;;;;;13.87;10.60;;;;;;;;;;4951600;28;20461;-66
2021/11/13 11:07:12;;;;;;;13.50;10.93;;;;;;;;;;4949298;28;20942;-66
2021/11/13 11:09:57;;;;;;;14.07;10.00;;;;;;;;;;4952799;28;20456;-66
2021/11/13 11:12:27;;;;;;;14.07;10.70;;;;;;;;;;4951991;28;20418;-67
2021/11/13 11:14:54;;;;;;;12.53;10.67;;;;;;;;;;4952492;29;20399;-66
2021/11/13 11:17:22;;;;;;;15.73;11.50;;;;;;;;;;4952710;28;20426;-67
2021/11/13 11:19:50;;;;;;;14.33;9.77;;;;;;;;;;4952572;29;20399;-66
2021/11/13 11:22:24;;;;;;;16.20;10.83;;;;;;;;;;4952965;29;20402;-66
2021/11/13 11:24:51;;;;;;;14.60;10.87;;;;;;;;;;4951522;29;20441;-66
2021/11/13 11:27:49;;;;;;;14.80;11.60;;;;;;;;;;4952296;28;20481;-67
2021/11/13 11:30:19;;;;;;;16.70;11.20;;;;;;;;;;4963343;28;20410;-67
2021/11/13 11:32:48;;;;;;;17.00;11.40;;;;;;;;;;4952354;29;20407;-67
2021/11/13 11:35:22;;;;;;;13.40;11.87;;;;;;;;;;4951174;29;20457;-67
2021/11/13 11:37:49;;;;;;;13.77;10.57;;;;;;;;;;4952852;28;20434;-67
2021/11/13 11:40:17;;;;;;;13.90;10.53;;;;;;;;;;4952497;28;20407;-66
2021/11/13 11:42:43;;;;;;;12.90;10.70;;;;;;;;;;4952149;28;20403;-67
2021/11/13 11:45:10;;;;;;;14.63;9.87;;;;;;;;;;4933540;29;20427;-66
2021/11/13 11:47:38;;;;;;;16.10;9.80;;;;;;;;;;4932887;29;20542;-67
2021/11/13 11:50:06;;;;;;;13.60;11.17;;;;;;;;;;4934969;29;20453;-67
2021/11/13 11:52:32;;;;;;;16.00;12.40;;;;;;;;;;4942574;29;20414;-66
2021/11/13 11:54:59;;;;;;;15.30;12.60;;;;;;;;;;4951420;29;20822;-67
2021/11/13 11:57:30;;;;;;;14.33;10.40;;;;;;;;;;4952593;28;20849;-66
2021/11/13 12:00:00;;;;;;;18.30;10.60;;;;;;;;;;4952247;28;20414;-67
2021/11/13 12:02:35;;;;;;;11.80;9.53;;;;;;;;;;4931666;28;20572;-68
2021/11/13 12:05:06;;;;;;;13.00;11.47;;;;;;;;;;4933668;29;20415;-67
2021/11/13 12:07:33;;;;;;;16.57;11.07;;;;;;;;;;4942289;28;20549;-67
2021/11/13 12:10:01;;;;;;;14.47;11.10;;;;;;;;;;4952180;29;20925;-66
2021/11/13 12:12:28;;;;;;;14.03;11.60;;;;;;;;;;4952274;29;20402;-68
2021/11/13 12:15:10;;;;;;;12.27;10.20;;;;;;;;;;4951965;29;20413;-67
2021/11/13 12:17:37;;;;;;;13.33;10.80;;;;;;;;;;4952161;28;20476;-67
2021/11/13 12:20:11;;;;;;;15.33;12.10;;;;;;;;;;4951939;29;20469;-67
2021/11/13 12:22:46;;;;;;;17.00;12.47;;;;;;;;;;4940097;29;20975;-67
2021/11/13 12:25:12;;;;;;;14.33;11.50;;;;;;;;;;4933059;29;20431;-67
2021/11/13 12:27:39;;;;;;;16.43;11.47;;;;;;;;;;4932502;29;21010;-67
2021/11/13 12:30:05;;;;;;;12.97;10.27;;;;;;;;;;4932777;29;20399;-67
2021/11/13 12:32:32;;;;;;;15.50;12.00;;;;;;;;;;4936328;29;20464;-67
2021/11/13 12:34:58;;;;;;;15.90;12.23;;;;;;;;;;4951421;29;20456;-67
2021/11/13 12:37:24;;;;;;;17.43;13.67;;;;;;;;;;4945111;28;20436;-67
2021/11/13 12:39:52;;;;;;;16.23;12.43;;;;;;;;;;4955064;29;20398;-67
2021/11/13 12:42:27;;;;;;;16.53;12.37;;;;;;;;;;4954739;29;20427;-67
2021/11/13 12:44:57;;;;;;;14.33;11.53;;;;;;;;;;4955339;29;20393;-67
2021/11/13 12:47:28;;;;;;;14.63;11.53;;;;;;;;;;4955122;28;20547;-67
2021/11/13 12:50:05;;;;;;;17.27;12.73;;;;;;;;;;4955123;29;20409;-67
2021/11/13 12:52:37;;;;;;;22.13;13.70;;;;;;;;;;4946778;29;20433;-67
2021/11/13 12:55:13;;;;;;;16.00;12.40;;;;;;;;;;4935835;28;20437;-66
2021/11/13 12:57:59;;;;;;;16.00;11.90;;;;;;;;;;4951291;28;20557;-66
2021/11/13 13:00:27;;;;;;;14.80;12.53;;;;;;;;;;4939264;29;20458;-66
2021/11/13 13:02:54;;;;;;;17.30;13.40;;;;;;;;;;4936265;28;20422;-67
2021/11/13 13:05:20;;;;;;;19.37;14.03;;;;;;;;;;4941292;29;20439;-66
2021/11/13 13:08:12;;;;;;;21.30;14.40;;;;;;;;;;4946907;28;20469;-66
2021/11/13 13:10:39;;;;;;;16.23;13.63;;;;;;;;;;4942333;28;20429;-66
2021/11/13 13:13:05;;;;;;;19.70;13.83;;;;;;;;;;4936336;29;20513;-66
2021/11/13 13:15:32;;;;;;;17.40;14.60;;;;;;;;;;4935637;28;20504;-66
2021/11/13 13:17:59;;;;;;;20.40;13.10;;;;;;;;;;4944765;28;20434;-66
2021/11/13 13:20:33;;;;;;;17.13;14.00;;;;;;;;;;4952654;28;20421;-65
2021/11/13 13:23:00;;;;;;;20.57;13.90;;;;;;;;;;4935209;29;20430;-66
2021/11/13 13:25:26;;;;;;;18.50;13.40;;;;;;;;;;4936512;29;20496;-65
2021/11/13 13:27:57;;;;;;;18.30;14.23;;;;;;;;;;4952417;28;20609;-65
2021/11/13 13:30:23;;;;;;;18.30;13.50;;;;;;;;;;4953586;29;20410;-67
2021/11/13 13:32:52;;;;;;;16.30;13.63;;;;;;;;;;4954659;29;20898;-66
2021/11/13 13:35:18;;;;;;;20.57;14.43;;;;;;;;;;4953014;29;20403;-66
2021/11/13 13:37:51;;;;;;;22.07;14.77;;;;;;;;;;4953771;28;20453;-66
2021/11/13 13:40:22;;;;;;;19.20;13.67;;;;;;;;;;4946350;29;20514;-66
2021/11/13 13:42:49;;;;;;;18.43;13.87;;;;;;;;;;4935218;29;20407;-66
2021/11/13 13:45:15;;;;;;;18.63;14.83;;;;;;;;;;4935195;29;20900;-66
2021/11/13 13:47:44;;;;;;;18.47;14.03;;;;;;;;;;4934964;29;20455;-66
2021/11/13 13:50:10;;;;;;;22.63;14.87;;;;;;;;;;4935793;29;20411;-66
2021/11/13 13:52:41;;;;;;;20.53;14.63;;;;;;;;;;4935289;29;20462;-66
2021/11/13 13:55:10;;;;;;;16.63;12.60;;;;;;;;;;4949668;29;20514;-66
2021/11/13 13:57:36;;;;;;;19.67;14.67;;;;;;;;;;4954512;28;20446;-66
2021/11/13 14:00:05;;;;;;;20.53;15.20;;;;;;;;;;4947788;28;20486;-66
2021/11/13 14:02:31;;;;;;;18.23;14.13;;;;;;;;;;4934850;29;20410;-65
2021/11/13 14:04:57;;;;;;;19.30;14.63;;;;;;;;;;4934654;29;20403;-66
2021/11/13 14:07:25;;;;;;;28.97;15.63;;;;;;;;;;4934581;29;20896;-66
2021/11/13 14:10:03;;;;;;;20.03;14.50;;;;;;;;;;4936156;29;20466;-65
2021/11/13 14:12:40;;;;;;;22.73;14.60;;;;;;;;;;4934885;29;20478;-65
2021/11/13 14:15:14;;;;;;;18.30;13.93;;;;;;;;;;4934381;29;20392;-65
2021/11/13 14:17:40;;;;;;;17.90;13.40;;;;;;;;;;4934316;29;20422;-65
2021/11/13 14:20:14;;;;;;;16.40;13.87;;;;;;;;;;4934766;29;20903;-67
2021/11/13 14:22:46;;;;;;;19.63;14.40;;;;;;;;;;4934604;29;20489;-67
2021/11/13 14:25:12;;;;;;;20.43;14.90;;;;;;;;;;4935430;29;20443;-68
2021/11/13 14:27:40;;;;;;;18.77;14.30;;;;;;;;;;4934105;28;20467;-68